Baudette, Minnesota
Current Conditions -  °F | °C
As of 4:53 AM on Saturday 25 Oct 2014 (Local Time) from KBDE Reporting Station
Clear Clear  
Wind Chill: 41°   Ceiling: Unl
Heat Index: 45°   Visibility: 10mi
Dew Point: 32°   Wind: 8mph
Humidity: 60%   Direction: 300°WNW
Pressure: 29.87"   Gusts: NA
Location:  48.71°N, 94.6°W
Report Text: KBDE 250953Z AUTO 30007KT 10SM CLR 07/00 A2987 RMK AO2 SLP117 T00720000 TSNO
Loading
Personal Weather Stations






























Interactive Weather Map
Tropical Storm Tracking
New forecast layout! Learn more

10-Day Weather Forecast

Advertisements
Track Severe Weather on mobile